Time;durP1;ratioP1;P1;durP2;ratioP2;P2;SDS_P1;SDS_P2;PMS_P1;PMS_P2;Temp;Humidity;BMP_temperature;BMP_pressure;BME280_temperature;BME280_humidity;BME280_pressure;Samples;Min_cycle;Max_cycle;Signal;HPM_P1;HPM_P2
2022/03/19 00:00:48;;;;;;;17.13;4.33;;;7.10;99.90;;;;;;5060510;28;20204;-72
2022/03/19 00:03:18;;;;;;;12.73;4.60;;;7.10;99.90;;;;;;5041431;28;20184;-73
2022/03/19 00:05:44;;;;;;;14.30;4.30;;;7.10;99.90;;;;;;5046112;28;20187;-72
2022/03/19 00:08:11;;;;;;;8.63;4.60;;;7.10;99.90;;;;;;5050304;28;20258;-73
2022/03/19 00:10:36;;;;;;;14.80;4.97;;;7.10;99.90;;;;;;5058236;28;20207;-71
2022/03/19 00:13:02;;;;;;;14.80;4.70;;;7.00;99.90;;;;;;5069634;28;20209;-72
2022/03/19 00:15:28;;;;;;;11.77;4.27;;;7.00;99.90;;;;;;5066713;28;20269;-73
2022/03/19 00:17:56;;;;;;;11.47;4.60;;;7.00;99.90;;;;;;5073913;28;20178;-74
2022/03/19 00:20:22;;;;;;;15.37;4.43;;;7.00;99.90;;;;;;5057080;28;20619;-74
2022/03/19 00:22:48;;;;;;;16.90;5.17;;;6.90;99.90;;;;;;5053726;28;20184;-73
2022/03/19 00:25:13;;;;;;;11.87;4.97;;;6.90;99.90;;;;;;5053357;28;20180;-74
2022/03/19 00:27:41;;;;;;;16.03;5.30;;;6.90;99.90;;;;;;5054393;28;20187;-75
2022/03/19 00:30:07;;;;;;;14.47;4.50;;;6.90;99.90;;;;;;5073467;28;20289;-74
2022/03/19 00:32:33;;;;;;;14.63;5.20;;;6.90;99.90;;;;;;5069149;28;20207;-74
2022/03/19 00:34:59;;;;;;;13.07;4.80;;;6.90;99.90;;;;;;5049862;28;20615;-74
2022/03/19 00:37:25;;;;;;;9.37;4.63;;;6.90;99.90;;;;;;5067295;28;20209;-73
2022/03/19 00:39:50;;;;;;;14.40;5.10;;;6.80;99.90;;;;;;5058424;28;20203;-75
2022/03/19 00:42:16;;;;;;;11.53;4.93;;;6.80;99.90;;;;;;5042258;28;20194;-74
2022/03/19 00:44:42;;;;;;;14.03;5.80;;;6.80;99.90;;;;;;5043149;28;20184;-73
2022/03/19 00:47:08;;;;;;;13.80;5.13;;;6.80;99.90;;;;;;5053271;28;20183;-72
2022/03/19 00:49:34;;;;;;;15.13;6.07;;;6.80;99.90;;;;;;5035490;28;20192;-74
2022/03/19 00:51:59;;;;;;;11.07;4.57;;;6.70;99.90;;;;;;5033357;28;20636;-74
2022/03/19 00:54:25;;;;;;;10.17;5.10;;;6.70;99.90;;;;;;5034467;28;20183;-73
2022/03/19 00:56:51;;;;;;;10.80;4.47;;;6.70;99.90;;;;;;5057570;28;20178;-74
2022/03/19 00:59:16;;;;;;;13.20;5.50;;;6.70;99.90;;;;;;5056334;28;20200;-74
2022/03/19 01:01:42;;;;;;;14.63;5.53;;;6.70;99.90;;;;;;5035426;28;20192;-74
2022/03/19 01:04:07;;;;;;;11.20;5.20;;;6.70;99.90;;;;;;5045595;28;20311;-74
2022/03/19 01:06:33;;;;;;;14.33;5.60;;;6.70;99.90;;;;;;5040095;28;20189;-72
2022/03/19 01:08:59;;;;;;;15.00;5.07;;;6.60;99.90;;;;;;5052998;28;20199;-74
2022/03/19 01:11:24;;;;;;;15.70;4.83;;;6.60;99.90;;;;;;5051976;28;20175;-74
2022/03/19 01:13:51;;;;;;;13.87;5.77;;;6.60;99.90;;;;;;5058130;28;20190;-74
2022/03/19 01:16:20;;;;;;;10.53;4.97;;;6.60;99.90;;;;;;5065797;28;20187;-74
2022/03/19 01:18:47;;;;;;;10.97;5.17;;;6.60;99.90;;;;;;5054077;28;20648;-73
2022/03/19 01:21:12;;;;;;;11.33;5.17;;;6.60;99.90;;;;;;5045456;28;20796;-73
2022/03/19 01:23:38;;;;;;;11.50;5.07;;;6.60;99.90;;;;;;5047040;28;20164;-72
2022/03/19 01:26:04;;;;;;;9.80;5.20;;;6.60;99.90;;;;;;5037816;28;20680;-74
2022/03/19 01:28:29;;;;;;;11.90;5.40;;;6.60;99.90;;;;;;5037592;28;20203;-74
2022/03/19 01:30:55;;;;;;;12.67;5.10;;;6.50;99.90;;;;;;5032500;28;20206;-74
2022/03/19 01:33:21;;;;;;;13.57;5.20;;;6.40;99.90;;;;;;5033950;28;20186;-74
2022/03/19 01:35:47;;;;;;;14.90;5.10;;;6.40;99.90;;;;;;5040149;28;20250;-74
2022/03/19 01:38:12;;;;;;;12.87;4.50;;;6.40;99.90;;;;;;5047302;28;20293;-75
2022/03/19 01:40:38;;;;;;;11.50;4.97;;;6.40;99.90;;;;;;5039052;28;20183;-74
2022/03/19 01:43:04;;;;;;;13.93;4.73;;;6.30;99.90;;;;;;5032133;28;20201;-76
2022/03/19 01:45:30;;;;;;;10.90;4.50;;;6.30;99.90;;;;;;5036513;28;20183;-74
2022/03/19 01:47:56;;;;;;;9.17;4.57;;;6.30;99.90;;;;;;5047064;28;20195;-74
2022/03/19 01:50:24;;;;;;;7.53;4.23;;;6.30;99.90;;;;;;5035476;28;20229;-74
2022/03/19 01:52:51;;;;;;;9.87;4.50;;;6.30;99.90;;;;;;5029574;28;20180;-77
2022/03/19 01:55:19;;;;;;;11.13;4.43;;;6.20;99.90;;;;;;5029437;28;20191;-73
2022/03/19 01:57:46;;;;;;;15.37;4.57;;;6.20;99.90;;;;;;5047738;28;20172;-74
2022/03/19 02:00:17;;;;;;;10.07;4.60;;;6.30;99.90;;;;;;5067559;28;20195;-74
2022/03/19 02:02:45;;;;;;;13.40;4.80;;;6.20;99.90;;;;;;5046466;28;20298;-73
2022/03/19 02:05:16;;;;;;;11.37;4.37;;;6.20;99.90;;;;;;5038547;28;20183;-74
2022/03/19 02:07:43;;;;;;;12.47;4.60;;;6.20;99.90;;;;;;5056721;28;20207;-76
2022/03/19 02:10:10;;;;;;;9.60;4.10;;;6.20;99.90;;;;;;5051160;28;20206;-74
2022/03/19 02:12:36;;;;;;;14.17;5.43;;;6.10;99.90;;;;;;5048401;28;20329;-75
2022/03/19 02:15:03;;;;;;;9.20;4.03;;;6.10;99.90;;;;;;5037865;28;20214;-74
2022/03/19 02:17:29;;;;;;;12.53;4.77;;;6.10;99.90;;;;;;5047153;28;20184;-73
2022/03/19 02:19:56;;;;;;;9.00;4.40;;;6.10;99.90;;;;;;5054913;28;20199;-74
2022/03/19 02:22:25;;;;;;;10.33;4.73;;;6.10;99.90;;;;;;5040678;28;20601;-75
2022/03/19 02:25:37;;;;;;;12.33;5.07;;;6.00;99.90;;;;;;5034513;28;20174;-74
2022/03/19 02:27:37;;;;;;;11.37;4.27;;;6.00;99.90;;;;;;5040566;28;20199;-74
2022/03/19 02:30:05;;;;;;;8.77;3.97;;;6.00;99.90;;;;;;5032398;28;20196;-75
2022/03/19 02:32:32;;;;;;;14.27;4.30;;;6.00;99.90;;;;;;5039926;28;20678;-73
2022/03/19 02:34:58;;;;;;;11.20;3.87;;;5.90;99.90;;;;;;5046137;28;20214;-72
2022/03/19 02:37:24;;;;;;;16.30;4.43;;;5.90;99.90;;;;;;5067080;28;20267;-74
2022/03/19 02:39:49;;;;;;;11.57;4.10;;;5.90;99.90;;;;;;5056461;28;20200;-74
2022/03/19 02:42:20;;;;;;;10.20;3.80;;;5.80;99.90;;;;;;5031606;28;20285;-75
2022/03/19 02:44:46;;;;;;;14.30;4.07;;;5.80;99.90;;;;;;5050819;28;20175;-73
2022/03/19 02:47:12;;;;;;;8.70;3.83;;;5.80;99.90;;;;;;5048582;28;20203;-74
2022/03/19 02:49:38;;;;;;;11.37;4.13;;;5.80;99.90;;;;;;5046672;28;20257;-74
2022/03/19 02:52:04;;;;;;;11.57;3.60;;;5.80;99.90;;;;;;5038635;28;20254;-73
2022/03/19 02:54:31;;;;;;;8.83;3.90;;;5.80;99.90;;;;;;5032566;28;20286;-73
2022/03/19 02:56:57;;;;;;;9.73;3.40;;;5.80;99.90;;;;;;5040576;28;20184;-74
2022/03/19 02:59:26;;;;;;;14.57;4.17;;;5.70;99.90;;;;;;5057839;28;20433;-74
2022/03/19 03:01:55;;;;;;;10.33;3.50;;;5.70;99.90;;;;;;5039071;28;20192;-73
2022/03/19 03:04:21;;;;;;;9.30;3.40;;;5.70;99.90;;;;;;5037309;28;20238;-74
2022/03/19 03:06:50;;;;;;;10.27;3.40;;;5.60;99.90;;;;;;5049320;28;20175;-73
2022/03/19 03:09:19;;;;;;;11.60;4.20;;;5.60;99.90;;;;;;5047838;28;20195;-75
2022/03/19 03:11:45;;;;;;;11.23;3.70;;;5.60;99.90;;;;;;5062827;28;20176;-74
2022/03/19 03:14:11;;;;;;;7.83;3.70;;;5.60;99.90;;;;;;5039280;28;20183;-74
2022/03/19 03:16:38;;;;;;;10.97;3.73;;;5.60;99.90;;;;;;5050402;28;20179;-74
2022/03/19 03:19:06;;;;;;;10.27;3.40;;;5.60;99.90;;;;;;5050172;28;20288;-74
2022/03/19 03:21:35;;;;;;;11.33;3.70;;;5.60;99.90;;;;;;5049348;28;20294;-74
2022/03/19 03:24:02;;;;;;;12.30;4.07;;;5.50;99.90;;;;;;5035945;28;20179;-75
2022/03/19 03:26:30;;;;;;;11.93;4.03;;;5.50;99.90;;;;;;5040651;28;20179;-74
2022/03/19 03:28:56;;;;;;;11.50;3.87;;;5.50;99.90;;;;;;5054616;28;20242;-73
2022/03/19 03:31:22;;;;;;;7.97;3.37;;;5.50;99.90;;;;;;5041378;28;20179;-75
2022/03/19 03:33:47;;;;;;;8.60;3.93;;;5.50;99.90;;;;;;5043931;28;20238;-73
2022/03/19 03:36:13;;;;;;;11.07;3.70;;;5.50;99.90;;;;;;5050775;28;20182;-73
2022/03/19 03:38:39;;;;;;;11.70;3.70;;;5.50;99.90;;;;;;5069024;28;20203;-74
2022/03/19 03:41:05;;;;;;;13.30;3.73;;;5.50;99.90;;;;;;5051013;28;20200;-74
2022/03/19 03:43:31;;;;;;;9.20;3.80;;;5.50;99.90;;;;;;5040214;28;20531;-73
2022/03/19 03:45:57;;;;;;;12.93;3.87;;;5.40;99.90;;;;;;5042208;28;20172;-75
2022/03/19 03:48:22;;;;;;;11.33;3.67;;;5.40;99.90;;;;;;5040281;28;20179;-73
2022/03/19 03:50:51;;;;;;;10.83;4.63;;;5.40;99.90;;;;;;5056865;28;20182;-74
2022/03/19 03:53:17;;;;;;;8.13;3.23;;;5.40;99.90;;;;;;5045442;28;20263;-74
2022/03/19 03:55:44;;;;;;;14.97;4.00;;;5.30;99.90;;;;;;5050084;28;20179;-74
2022/03/19 03:58:11;;;;;;;10.00;3.57;;;5.20;99.90;;;;;;5050021;28;20181;-73
2022/03/19 04:00:36;;;;;;;11.73;3.40;;;5.30;99.90;;;;;;5069681;28;20171;-73
2022/03/19 04:03:03;;;;;;;10.60;3.30;;;5.20;99.90;;;;;;5070171;28;20219;-74
2022/03/19 04:05:29;;;;;;;9.97;3.07;;;5.20;99.90;;;;;;5057073;28;20201;-74
2022/03/19 04:07:56;;;;;;;6.77;2.83;;;5.20;99.90;;;;;;5044686;28;20192;-73
2022/03/19 04:10:21;;;;;;;11.17;2.60;;;5.10;99.90;;;;;;5030124;28;20204;-74
2022/03/19 04:12:47;;;;;;;12.30;3.20;;;5.10;99.90;;;;;;5061184;28;20964;-73
2022/03/19 04:15:13;;;;;;;10.60;3.57;;;5.10;99.90;;;;;;5037934;28;20179;-75
2022/03/19 04:17:40;;;;;;;10.47;3.23;;;5.20;99.90;;;;;;5049668;28;20562;-74
2022/03/19 04:20:07;;;;;;;11.87;3.07;;;5.10;99.90;;;;;;5046588;28;20202;-73
2022/03/19 04:22:41;;;;;;;9.80;2.80;;;5.10;99.90;;;;;;5049433;28;20194;-73
2022/03/19 04:25:15;;;;;;;8.90;2.50;;;5.10;99.90;;;;;;5049790;28;20199;-74
2022/03/19 04:27:43;;;;;;;7.33;2.30;;;5.00;99.90;;;;;;5056572;28;20167;-73
2022/03/19 04:30:12;;;;;;;8.40;2.80;;;5.00;99.90;;;;;;5069094;28;20209;-75
2022/03/19 04:32:43;;;;;;;10.23;2.83;;;5.00;99.90;;;;;;5052208;28;20178;-74
2022/03/19 04:38:03;;;;;;;9.57;3.07;;;5.00;99.90;;;;;;5044932;28;20186;-74
2022/03/19 04:40:30;;;;;;;7.57;3.03;;;4.90;99.90;;;;;;5041004;28;20800;-73
2022/03/19 04:42:56;;;;;;;10.27;3.20;;;4.90;99.90;;;;;;5030661;28;20238;-75
2022/03/19 04:45:22;;;;;;;11.43;2.77;;;4.80;99.90;;;;;;5032472;28;20567;-75
2022/03/19 04:47:48;;;;;;;10.97;2.93;;;4.80;99.90;;;;;;5033130;28;20227;-75
2022/03/19 04:50:14;;;;;;;8.93;2.80;;;4.80;99.90;;;;;;5031900;28;20242;-74
2022/03/19 04:52:40;;;;;;;7.83;2.70;;;4.80;99.90;;;;;;5029987;28;20181;-72
2022/03/19 04:55:10;;;;;;;11.40;2.63;;;4.80;99.90;;;;;;5030234;28;20552;-74
2022/03/19 04:57:36;;;;;;;11.30;3.07;;;4.80;99.90;;;;;;5054143;28;20185;-74
2022/03/19 05:00:04;;;;;;;12.70;3.20;;;4.80;99.90;;;;;;5069620;28;20197;-74
2022/03/19 05:02:30;;;;;;;10.03;2.93;;;4.80;99.90;;;;;;5052531;28;20199;-74
2022/03/19 05:04:56;;;;;;;8.10;2.90;;;4.70;99.90;;;;;;5045875;28;20174;-74
2022/03/19 05:07:22;;;;;;;9.77;2.90;;;4.70;99.90;;;;;;5053025;28;20175;-73
2022/03/19 05:12:39;;;;;;;11.50;3.33;;;4.70;99.90;;;;;;5031603;28;20199;-74
2022/03/19 05:15:05;;;;;;;16.53;3.30;;;4.70;99.90;;;;;;5040195;28;20192;-74
2022/03/19 05:17:32;;;;;;;10.77;3.00;;;4.60;99.90;;;;;;5031887;28;20238;-74
2022/03/19 05:19:57;;;;;;;9.13;2.77;;;4.60;99.90;;;;;;5045863;28;20249;-75
2022/03/19 05:22:23;;;;;;;10.73;3.13;;;4.50;99.90;;;;;;5044237;28;20203;-74
2022/03/19 05:24:49;;;;;;;9.83;2.70;;;4.50;99.90;;;;;;5048779;28;20185;-75
2022/03/19 05:27:15;;;;;;;8.03;2.70;;;4.50;99.90;;;;;;5053135;28;20216;-75
2022/03/19 05:29:40;;;;;;;14.93;3.83;;;4.50;99.90;;;;;;5043560;28;20199;-74
2022/03/19 05:32:07;;;;;;;11.30;3.40;;;4.50;99.90;;;;;;5042680;28;20180;-74
2022/03/19 05:34:34;;;;;;;13.53;2.97;;;4.40;99.90;;;;;;5034045;28;20184;-75
2022/03/19 05:37:01;;;;;;;7.63;2.83;;;4.40;99.90;;;;;;5039758;28;20187;-74
2022/03/19 05:39:28;;;;;;;13.47;3.53;;;4.40;99.90;;;;;;5045126;28;20205;-75
2022/03/19 05:41:54;;;;;;;13.47;3.50;;;4.40;99.90;;;;;;5031693;28;20210;-75
2022/03/19 05:44:20;;;;;;;11.37;3.30;;;4.40;99.90;;;;;;5042887;28;20187;-74
2022/03/19 05:46:47;;;;;;;12.83;3.70;;;4.40;99.90;;;;;;5035571;28;20523;-74
2022/03/19 05:49:13;;;;;;;12.07;4.47;;;4.40;99.90;;;;;;5035695;28;20281;-75
2022/03/19 05:51:39;;;;;;;16.07;4.00;;;4.40;99.90;;;;;;5043916;28;20335;-74
2022/03/19 05:54:05;;;;;;;11.10;3.70;;;4.40;99.90;;;;;;5042723;28;20692;-74
2022/03/19 05:56:31;;;;;;;9.83;3.77;;;4.40;99.90;;;;;;5040172;28;20182;-72
2022/03/19 05:58:57;;;;;;;13.93;4.33;;;4.40;99.90;;;;;;5053947;28;20202;-74
2022/03/19 06:01:26;;;;;;;11.37;4.20;;;4.40;99.90;;;;;;5035945;28;20211;-74
2022/03/19 06:03:56;;;;;;;14.00;3.63;;;4.30;99.90;;;;;;5038092;28;20177;-74
2022/03/19 06:06:22;;;;;;;10.23;3.80;;;4.30;99.90;;;;;;5047779;28;20171;-74
2022/03/19 06:08:47;;;;;;;10.10;3.63;;;4.40;99.90;;;;;;5047507;28;20214;-75
2022/03/19 06:11:13;;;;;;;14.57;4.20;;;4.40;99.90;;;;;;5047451;28;20190;-74
2022/03/19 06:13:39;;;;;;;17.17;4.40;;;4.40;99.90;;;;;;5031262;28;20186;-75
2022/03/19 06:16:05;;;;;;;20.37;4.50;;;4.40;99.90;;;;;;5038506;28;20188;-73
2022/03/19 06:18:31;;;;;;;12.47;4.30;;;4.40;99.90;;;;;;5036964;28;20206;-74
2022/03/19 06:20:57;;;;;;;11.93;4.13;;;4.40;99.90;;;;;;5031972;28;20237;-75
2022/03/19 06:23:23;;;;;;;12.93;3.97;;;4.40;99.90;;;;;;5032406;28;20293;-74
2022/03/19 06:25:49;;;;;;;11.57;3.80;;;4.40;99.90;;;;;;5039830;28;20175;-75
2022/03/19 06:28:15;;;;;;;10.00;4.13;;;4.30;99.90;;;;;;5061923;28;20166;-74
2022/03/19 06:30:41;;;;;;;12.40;4.07;;;4.40;99.90;;;;;;5039589;28;20233;-75
2022/03/19 06:33:07;;;;;;;12.43;3.80;;;4.40;99.90;;;;;;5064066;28;20177;-75
2022/03/19 06:38:18;;;;;;;8.73;4.10;;;4.40;99.90;;;;;;5034544;28;20193;-75
2022/03/19 06:40:44;;;;;;;10.90;4.27;;;4.40;99.90;;;;;;5035236;28;20438;-76
2022/03/19 06:43:09;;;;;;;15.93;4.23;;;4.40;99.90;;;;;;5043941;28;20202;-74
2022/03/19 06:45:35;;;;;;;13.83;4.67;;;4.40;99.90;;;;;;5045698;28;20170;-74
2022/03/19 06:48:01;;;;;;;11.17;3.77;;;4.40;99.90;;;;;;5045090;28;20176;-74
2022/03/19 06:50:26;;;;;;;21.00;4.73;;;4.50;99.90;;;;;;5037066;28;20256;-74
2022/03/19 06:52:52;;;;;;;14.83;4.20;;;4.50;99.90;;;;;;5039352;28;20180;-75
2022/03/19 06:55:18;;;;;;;12.67;4.23;;;4.50;99.90;;;;;;5038005;28;20217;-75
2022/03/19 06:57:43;;;;;;;13.37;3.83;;;4.60;99.90;;;;;;5039369;28;20215;-72
2022/03/19 07:00:09;;;;;;;12.53;4.00;;;4.60;99.90;;;;;;5043284;28;20259;-76
2022/03/19 07:02:49;;;;;;;16.50;4.23;;;4.60;99.90;;;;;;5045216;28;20195;-76
2022/03/19 07:05:25;;;;;;;15.97;3.93;;;4.60;99.90;;;;;;5041634;28;20187;-75
2022/03/19 07:07:52;;;;;;;6.87;3.87;;;4.70;99.90;;;;;;5045300;28;20181;-75
2022/03/19 07:10:19;;;;;;;10.47;3.57;;;4.70;99.90;;;;;;5051014;28;20190;-76
2022/03/19 07:12:49;;;;;;;14.40;3.83;;;4.70;99.90;;;;;;5049032;28;20192;-75
2022/03/19 07:15:17;;;;;;;14.27;4.63;;;4.80;99.90;;;;;;5050401;28;20219;-75
2022/03/19 07:17:43;;;;;;;9.50;4.00;;;4.90;99.90;;;;;;5042509;28;20693;-75
2022/03/19 07:20:11;;;;;;;16.63;4.97;;;4.90;99.90;;;;;;5029234;28;20219;-75
2022/03/19 07:22:52;;;;;;;15.57;3.90;;;4.90;99.90;;;;;;5031144;28;20199;-75
2022/03/19 07:25:19;;;;;;;17.13;3.90;;;5.00;99.90;;;;;;5050838;28;20178;-78
2022/03/19 07:27:46;;;;;;;14.63;3.90;;;5.00;99.90;;;;;;5059171;28;20651;-75
2022/03/19 07:30:12;;;;;;;11.57;3.97;;;5.00;99.90;;;;;;5052880;28;20226;-75
2022/03/19 07:32:38;;;;;;;9.20;3.57;;;5.10;99.90;;;;;;5043009;28;20218;-75
2022/03/19 07:35:06;;;;;;;9.33;4.03;;;5.10;99.90;;;;;;5049352;28;20180;-74
2022/03/19 07:37:32;;;;;;;10.23;3.87;;;5.20;99.90;;;;;;5061753;28;20187;-74
2022/03/19 07:39:58;;;;;;;15.80;4.43;;;5.20;99.90;;;;;;5049281;28;20210;-75
2022/03/19 07:42:24;;;;;;;16.23;4.33;;;5.30;99.90;;;;;;5048886;28;20432;-74
2022/03/19 07:44:50;;;;;;;13.43;3.70;;;5.30;99.90;;;;;;5049097;28;20179;-75
2022/03/19 07:47:17;;;;;;;17.43;3.60;;;5.40;99.90;;;;;;5049120;28;20183;-75
2022/03/19 07:49:43;;;;;;;16.00;4.13;;;5.50;99.90;;;;;;5047935;28;20197;-75
2022/03/19 07:52:09;;;;;;;11.77;3.80;;;5.50;99.90;;;;;;5058867;28;20223;-75
2022/03/19 07:54:38;;;;;;;13.27;3.50;;;5.60;99.90;;;;;;5034954;28;20270;-74
2022/03/19 07:57:06;;;;;;;14.40;3.77;;;5.60;99.90;;;;;;5046672;28;20263;-75
2022/03/19 07:59:32;;;;;;;11.73;3.57;;;5.70;99.90;;;;;;5058134;28;20210;-74
2022/03/19 08:01:57;;;;;;;12.83;3.50;;;5.70;99.90;;;;;;5042967;28;20252;-75
2022/03/19 08:04:23;;;;;;;13.13;4.03;;;5.80;99.90;;;;;;5051407;28;20179;-75
2022/03/19 08:06:53;;;;;;;12.97;3.30;;;5.90;99.90;;;;;;5054336;28;20270;-74
2022/03/19 08:09:19;;;;;;;13.57;2.83;;;6.00;99.90;;;;;;5044545;28;20686;-72
2022/03/19 08:11:46;;;;;;;11.60;3.30;;;6.00;99.90;;;;;;5052783;28;20236;-72
2022/03/19 08:14:14;;;;;;;11.63;3.40;;;6.10;99.90;;;;;;5039790;28;20206;-73
2022/03/19 08:16:41;;;;;;;7.90;2.63;;;6.10;99.90;;;;;;5051313;28;20641;-72
2022/03/19 08:19:08;;;;;;;9.33;3.60;;;6.20;99.90;;;;;;5044272;28;20208;-72
2022/03/19 08:21:33;;;;;;;10.53;3.13;;;6.20;99.90;;;;;;5045962;28;20196;-71
2022/03/19 08:23:59;;;;;;;10.57;3.00;;;6.20;99.90;;;;;;5045421;28;20219;-72
2022/03/19 08:26:25;;;;;;;8.63;2.93;;;6.30;99.90;;;;;;5048632;28;20215;-73
2022/03/19 08:28:51;;;;;;;10.60;4.13;;;6.30;99.90;;;;;;5049746;28;20216;-73
2022/03/19 08:31:17;;;;;;;8.50;2.77;;;6.40;99.90;;;;;;5057132;28;20183;-72
2022/03/19 08:33:42;;;;;;;12.33;3.17;;;6.50;99.90;;;;;;5033583;28;20188;-72
2022/03/19 08:36:08;;;;;;;16.03;3.10;;;6.50;99.90;;;;;;5043809;28;20215;-72
2022/03/19 08:41:18;;;;;;;9.27;2.57;;;6.60;99.90;;;;;;5050965;28;20279;-72
2022/03/19 08:43:44;;;;;;;8.67;2.10;;;6.70;99.90;;;;;;5045047;28;20279;-77
2022/03/19 08:46:10;;;;;;;7.63;2.30;;;6.70;99.90;;;;;;5039145;28;20190;-73
2022/03/19 08:48:36;;;;;;;8.67;2.23;;;6.70;99.90;;;;;;5049547;28;20290;-73
2022/03/19 08:53:47;;;;;;;13.13;2.70;;;6.80;99.90;;;;;;5043504;28;20606;-73
2022/03/19 08:56:13;;;;;;;9.10;2.37;;;6.90;99.90;;;;;;5036620;28;20628;-73
2022/03/19 08:58:39;;;;;;;5.50;2.00;;;6.90;99.90;;;;;;5056348;28;20251;-72
2022/03/19 09:01:05;;;;;;;10.13;2.50;;;7.00;99.90;;;;;;5034455;28;20235;-73
2022/03/19 09:03:31;;;;;;;9.70;2.67;;;7.00;99.90;;;;;;5033133;28;20212;-73
2022/03/19 09:05:57;;;;;;;6.40;2.10;;;7.10;99.90;;;;;;5033054;28;20176;-72
2022/03/19 09:08:22;;;;;;;9.63;2.13;;;7.20;99.90;;;;;;5032494;28;20215;-73
2022/03/19 09:10:48;;;;;;;8.67;2.40;;;7.20;99.90;;;;;;5049392;28;20176;-73
2022/03/19 09:13:14;;;;;;;6.07;1.90;;;7.30;99.90;;;;;;5052827;28;20258;-73
2022/03/19 09:15:40;;;;;;;5.13;1.63;;;7.30;99.90;;;;;;5052531;28;20172;-72
2022/03/19 09:18:06;;;;;;;2.30;1.30;;;7.30;99.90;;;;;;5053250;28;20176;-73
2022/03/19 09:20:32;;;;;;;4.93;1.60;;;7.30;99.90;;;;;;5052961;28;20199;-74
2022/03/19 09:22:58;;;;;;;7.73;1.50;;;7.40;99.90;;;;;;5052494;28;20211;-72
2022/03/19 09:25:24;;;;;;;5.63;1.60;;;7.50;99.90;;;;;;5052794;28;20175;-73
2022/03/19 09:27:49;;;;;;;6.30;1.67;;;7.50;99.90;;;;;;5060826;28;20258;-72
2022/03/19 09:30:15;;;;;;;3.47;1.17;;;7.60;99.90;;;;;;5055032;28;20295;-73
2022/03/19 09:32:41;;;;;;;6.47;1.60;;;7.60;99.90;;;;;;5050907;28;20266;-72
2022/03/19 09:35:08;;;;;;;5.17;1.60;;;7.70;99.90;;;;;;5052616;28;20263;-72
2022/03/19 09:37:34;;;;;;;4.63;1.47;;;7.70;99.90;;;;;;5052736;28;20179;-73
2022/03/19 09:40:00;;;;;;;3.50;1.27;;;7.80;99.90;;;;;;5052743;28;20196;-72
2022/03/19 09:42:28;;;;;;;3.60;1.40;;;7.80;99.90;;;;;;5052137;28;20329;-72
2022/03/19 09:44:54;;;;;;;5.13;1.40;;;7.90;99.90;;;;;;5052031;28;20183;-72
2022/03/19 09:47:19;;;;;;;7.33;1.70;;;7.90;99.90;;;;;;5052554;28;20175;-72
2022/03/19 09:49:45;;;;;;;5.83;1.30;;;7.90;99.90;;;;;;5052082;28;20199;-73
2022/03/19 09:52:12;;;;;;;6.67;1.77;;;8.00;99.90;;;;;;5052332;28;20191;-72
2022/03/19 09:54:39;;;;;;;6.87;1.70;;;8.00;99.90;;;;;;5051957;28;20186;-72
2022/03/19 09:57:05;;;;;;;6.00;1.20;;;8.10;99.90;;;;;;5051339;28;20187;-72
2022/03/19 09:59:31;;;;;;;4.47;1.30;;;8.10;99.90;;;;;;5065956;28;20197;-72
2022/03/19 10:01:56;;;;;;;4.83;1.57;;;8.20;99.90;;;;;;5069546;28;20199;-73
2022/03/19 10:04:22;;;;;;;8.90;1.73;;;8.20;99.90;;;;;;5040861;28;20191;-73
2022/03/19 10:09:48;;;;;;;6.37;1.70;;;8.20;99.90;;;;;;5035272;28;20191;-74
2022/03/19 10:12:19;;;;;;;5.70;1.90;;;8.30;99.90;;;;;;5042450;28;20172;-75
2022/03/19 10:14:53;;;;;;;7.80;1.60;;;8.40;99.90;;;;;;5036080;28;20567;-76
2022/03/19 10:17:33;;;;;;;7.33;2.30;;;8.40;99.90;;;;;;5053545;28;20305;-75
2022/03/19 10:20:10;;;;;;;4.80;1.80;;;8.50;99.90;;;;;;5037501;28;20204;-75
2022/03/19 10:22:45;;;;;;;4.83;2.10;;;8.50;99.90;;;;;;5049073;28;20187;-75
2022/03/19 10:25:12;;;;;;;6.70;1.97;;;8.50;99.90;;;;;;5033402;28;20173;-75
2022/03/19 10:27:40;;;;;;;5.13;1.83;;;8.60;99.90;;;;;;5053607;28;20191;-75
2022/03/19 10:30:22;;;;;;;6.80;1.93;;;8.70;99.90;;;;;;5072194;28;20194;-75
2022/03/19 10:32:51;;;;;;;5.17;1.40;;;8.70;99.90;;;;;;5050056;28;20191;-75
2022/03/19 10:35:31;;;;;;;3.20;1.73;;;8.70;99.90;;;;;;5049701;28;20172;-75
2022/03/19 10:37:59;;;;;;;7.10;1.97;;;8.70;99.90;;;;;;5036601;28;20180;-75
2022/03/19 10:40:41;;;;;;;4.87;1.93;;;8.70;99.90;;;;;;5031585;28;20227;-75
2022/03/19 10:43:09;;;;;;;5.63;1.63;;;8.70;99.90;;;;;;5039902;28;20188;-76
2022/03/19 10:45:44;;;;;;;4.87;1.53;;;8.80;99.90;;;;;;5036545;28;20175;-77
2022/03/19 10:48:12;;;;;;;8.07;2.13;;;8.90;99.90;;;;;;5032233;28;20187;-75
2022/03/19 10:50:40;;;;;;;6.10;1.73;;;8.90;99.90;;;;;;5051521;28;20205;-76
2022/03/19 10:53:06;;;;;;;8.90;1.87;;;9.00;99.90;;;;;;5052701;28;20211;-76
2022/03/19 10:55:32;;;;;;;5.87;1.60;;;9.00;99.90;;;;;;5051279;28;20187;-76
2022/03/19 10:57:58;;;;;;;4.47;1.43;;;9.00;99.90;;;;;;5052037;28;20180;-75
2022/03/19 11:00:24;;;;;;;9.60;1.83;;;9.10;99.90;;;;;;5065180;28;20197;-75
2022/03/19 11:02:54;;;;;;;6.47;1.80;;;9.10;99.90;;;;;;5043444;28;20229;-76
2022/03/19 11:05:21;;;;;;;6.73;1.90;;;9.10;99.90;;;;;;5061065;28;20270;-75
2022/03/19 11:07:48;;;;;;;4.67;1.87;;;9.10;99.90;;;;;;5056939;28;20188;-76
2022/03/19 11:10:14;;;;;;;4.03;1.67;;;9.20;99.90;;;;;;5036460;28;20187;-76
2022/03/19 11:12:50;;;;;;;5.00;1.70;;;9.20;99.90;;;;;;5048693;28;20188;-76
2022/03/19 11:15:17;;;;;;;3.77;1.40;;;9.20;99.90;;;;;;5047631;28;20245;-76
2022/03/19 11:17:45;;;;;;;4.63;1.40;;;9.30;99.90;;;;;;5038207;28;20622;-75
2022/03/19 11:20:13;;;;;;;5.27;1.40;;;9.30;99.90;;;;;;5053967;28;20191;-77
2022/03/19 11:22:42;;;;;;;3.53;1.17;;;9.40;99.90;;;;;;5043719;28;20206;-76
2022/03/19 11:25:25;;;;;;;4.93;1.43;;;9.40;99.90;;;;;;5049332;28;20168;-76
2022/03/19 11:27:55;;;;;;;2.67;1.33;;;9.50;99.90;;;;;;5049537;28;20175;-76
2022/03/19 11:30:26;;;;;;;4.37;1.37;;;9.50;99.90;;;;;;5041861;28;20682;-77
2022/03/19 11:33:16;;;;;;;5.43;1.43;;;9.60;99.90;;;;;;5050588;28;20263;-77
2022/03/19 11:35:45;;;;;;;7.47;1.80;;;9.60;99.90;;;;;;5051624;28;20588;-76
2022/03/19 11:38:22;;;;;;;4.07;1.60;;;9.70;99.90;;;;;;5051348;28;20175;-75
2022/03/19 11:40:54;;;;;;;3.30;1.20;;;9.70;99.90;;;;;;5052621;28;20171;-76
2022/03/19 11:43:33;;;;;;;5.60;1.90;;;9.70;99.90;;;;;;5050287;28;20176;-76
2022/03/19 11:46:04;;;;;;;5.10;1.40;;;9.70;99.90;;;;;;5050075;28;20175;-76
2022/03/19 11:48:38;;;;;;;5.10;1.40;;;9.80;99.90;;;;;;5055582;28;20183;-76
2022/03/19 11:51:25;;;;;;;3.83;1.13;;;9.90;99.90;;;;;;5060465;28;20666;-75
2022/03/19 11:54:02;;;;;;;6.50;1.27;;;10.00;99.90;;;;;;5051385;28;20183;-76
2022/03/19 11:56:48;;;;;;;7.33;1.53;;;10.10;99.90;;;;;;5050583;28;20194;-76
2022/03/19 11:59:18;;;;;;;1.63;0.90;;;10.10;99.90;;;;;;5050568;28;20266;-76
2022/03/19 12:02:05;;;;;;;3.97;1.00;;;10.10;99.90;;;;;;5072120;28;20191;-76
2022/03/19 12:04:47;;;;;;;3.33;1.03;;;10.10;99.90;;;;;;5071005;28;20236;-76
2022/03/19 12:07:37;;;;;;;5.10;1.57;;;10.20;99.90;;;;;;5071921;28;20163;-76
2022/03/19 12:10:24;;;;;;;2.73;0.93;;;10.30;99.90;;;;;;5053726;28;20192;-76
2022/03/19 12:12:50;;;;;;;3.80;1.07;;;10.30;99.90;;;;;;5054917;28;20655;-77
2022/03/19 12:15:34;;;;;;;2.10;1.07;;;10.40;99.90;;;;;;5054199;28;20182;-76
2022/03/19 12:18:37;;;;;;;4.17;1.47;;;10.40;99.90;;;;;;5054358;28;20198;-76
2022/03/19 12:21:05;;;;;;;5.93;1.40;;;10.40;99.90;;;;;;5035869;28;20182;-77
2022/03/19 12:24:06;;;;;;;2.73;1.00;;;10.40;99.90;;;;;;5039207;28;20685;-76
2022/03/19 12:26:44;;;;;;;4.27;1.40;;;10.40;99.90;;;;;;5053562;28;20171;-75
2022/03/19 12:29:11;;;;;;;6.80;1.17;;;10.40;99.90;;;;;;5056528;28;20199;-76
2022/03/19 12:31:48;;;;;;;3.07;1.07;;;10.40;99.90;;;;;;5051784;28;20172;-75
2022/03/19 12:34:25;;;;;;;4.40;0.97;;;10.40;99.90;;;;;;5044274;28;20199;-76
2022/03/19 12:36:57;;;;;;;3.57;1.33;;;10.40;99.90;;;;;;5058904;28;20181;-76
2022/03/19 12:39:23;;;;;;;4.43;1.20;;;10.50;99.90;;;;;;5058969;28;20302;-75
2022/03/19 12:41:48;;;;;;;5.53;1.37;;;10.50;99.90;;;;;;5058973;28;20265;-75
2022/03/19 12:44:21;;;;;;;6.27;1.50;;;10.50;99.90;;;;;;5047236;28;20184;-76
2022/03/19 12:46:53;;;;;;;4.17;1.20;;;10.50;99.90;;;;;;5038417;28;20204;-75
2022/03/19 12:49:18;;;;;;;7.50;1.63;;;10.60;99.90;;;;;;5047824;28;20182;-76
2022/03/19 12:51:46;;;;;;;17.97;11.27;;;10.60;99.90;;;;;;5063098;28;20195;-76
2022/03/19 12:54:33;;;;;;;2.60;1.27;;;10.70;99.90;;;;;;5055924;28;20187;-77
2022/03/19 12:57:12;;;;;;;2.60;0.97;;;10.70;99.90;;;;;;5054599;28;20183;-75
2022/03/19 12:59:52;;;;;;;2.73;0.77;;;10.80;99.90;;;;;;5069655;28;20205;-76
2022/03/19 13:02:18;;;;;;;3.03;1.13;;;10.80;99.90;;;;;;5043915;28;20750;-76
2022/03/19 13:04:46;;;;;;;3.03;1.00;;;10.90;99.90;;;;;;5051501;28;20176;-76
2022/03/19 13:07:17;;;;;;;2.83;1.00;;;10.90;99.90;;;;;;5055590;28;20173;-75
2022/03/19 13:09:43;;;;;;;3.37;1.10;;;10.80;99.90;;;;;;5049097;28;20203;-75
2022/03/19 13:12:21;;;;;;;2.60;0.90;;;10.80;99.90;;;;;;5049994;28;20184;-76